Time;durP1;ratioP1;P1;durP2;ratioP2;P2;SDS_P1;SDS_P2;PMS_P1;PMS_P2;Temp;Humidity;BMP_temperature;BMP_pressure;BME280_temperature;BME280_humidity;BME280_pressure;Samples;Min_cycle;Max_cycle;Signal;HPM_P1;HPM_P2
2022/05/04 00:00:29;;;;;;;8.40;7.60;;;;;;;-143.37;100.00;62585.38;5025450;28;20499;-75
2022/05/04 00:03:06;;;;;;;9.27;8.23;;;;;;;-143.37;100.00;62585.38;5022393;28;20449;-74
2022/05/04 00:05:41;;;;;;;9.33;8.50;;;;;;;-143.37;100.00;62585.38;5010735;28;20806;-74
2022/05/04 00:08:17;;;;;;;8.93;8.13;;;;;;;-143.37;100.00;62585.38;5009052;28;20793;-77
2022/05/04 00:10:52;;;;;;;8.67;7.83;;;;;;;-143.37;100.00;62585.38;5010619;28;20443;-77
2022/05/04 00:13:29;;;;;;;8.00;7.20;;;;;;;-143.37;100.00;62585.38;5023351;28;20483;-77
2022/05/04 00:16:06;;;;;;;8.67;7.80;;;;;;;-143.37;100.00;62585.38;5004140;28;20443;-75
2022/05/04 00:18:43;;;;;;;9.47;8.50;;;;;;;-143.37;100.00;62585.38;5029027;28;20452;-77
2022/05/04 00:21:19;;;;;;;10.57;9.30;;;;;;;-143.37;100.00;62585.38;5008492;28;20546;-76
2022/05/04 00:23:54;;;;;;;8.20;7.23;;;;;;;-143.37;100.00;62585.38;5028876;28;20478;-74
2022/05/04 00:26:30;;;;;;;8.40;7.60;;;;;;;-143.37;100.00;62585.38;5026531;28;20815;-77
2022/05/04 00:29:05;;;;;;;8.23;7.43;;;;;;;-143.37;100.00;62585.38;5015417;28;20455;-77
2022/05/04 00:31:41;;;;;;;9.30;8.40;;;;;;;-143.37;100.00;62585.38;5029162;28;20483;-77
2022/05/04 00:34:18;;;;;;;9.50;7.70;;;;;;;-143.37;100.00;62585.38;5011061;28;20487;-76
2022/05/04 00:36:53;;;;;;;9.33;8.37;;;;;;;-143.37;100.00;62585.38;5011169;28;20551;-77
2022/05/04 00:39:29;;;;;;;9.07;8.10;;;;;;;-143.37;100.00;62585.38;5005494;28;20445;-76
2022/05/04 00:42:13;;;;;;;8.87;7.97;;;;;;;-143.37;100.00;62585.38;5030707;28;20459;-76
2022/05/04 00:44:50;;;;;;;9.47;8.03;;;;;;;-143.37;100.00;62585.38;5029114;28;20551;-77
2022/05/04 00:47:26;;;;;;;10.60;8.00;;;;;;;-143.37;100.00;62585.38;5031767;28;20495;-77
2022/05/04 00:50:04;;;;;;;10.37;8.03;;;;;;;-143.37;100.00;62585.38;5021359;28;20432;-76
2022/05/04 00:52:43;;;;;;;8.83;7.93;;;;;;;-143.37;100.00;62585.38;5026759;28;20475;-76
2022/05/04 00:55:20;;;;;;;9.80;8.73;;;;;;;-143.37;100.00;62585.38;5013747;28;20990;-76
2022/05/04 01:00:51;;;;;;;8.97;8.07;;;;;;;-143.37;100.00;62585.38;5020378;28;21205;-76
2022/05/04 01:03:27;;;;;;;9.00;8.20;;;;;;;-143.37;100.00;62585.38;5009393;28;20435;-76
2022/05/04 01:06:04;;;;;;;9.20;8.27;;;;;;;-143.37;100.00;62585.38;4998307;28;20430;-76
2022/05/04 01:08:40;;;;;;;8.87;8.03;;;;;;;-143.37;100.00;62585.38;5010370;28;20463;-76
2022/05/04 01:11:16;;;;;;;9.17;8.37;;;;;;;-143.37;100.00;62585.38;5002348;28;20943;-76
2022/05/04 01:14:01;;;;;;;9.87;8.87;;;;;;;-143.37;100.00;62585.38;5006945;28;20489;-76
2022/05/04 01:16:38;;;;;;;8.90;8.10;;;;;;;-143.37;100.00;62585.38;4991921;28;20814;-76
2022/05/04 01:19:14;;;;;;;9.80;8.90;;;;;;;-143.37;100.00;62585.38;5006622;28;20806;-76
2022/05/04 01:21:51;;;;;;;9.80;8.90;;;;;;;-143.37;100.00;62585.38;5004013;28;22143;-76
2022/05/04 01:24:27;;;;;;;10.53;8.80;;;;;;;-143.37;100.00;62585.38;5006575;28;20448;-76
2022/05/04 01:27:02;;;;;;;9.40;8.50;;;;;;;-143.37;100.00;62585.38;5005708;28;20448;-76
2022/05/04 01:29:38;;;;;;;9.60;8.70;;;;;;;-143.37;100.00;62585.38;5004439;28;20447;-76
2022/05/04 01:32:14;;;;;;;9.10;8.30;;;;;;;-143.37;100.00;62585.38;5022801;28;20943;-75
2022/05/04 01:34:49;;;;;;;9.57;8.27;;;;;;;-143.37;100.00;62585.38;5003198;28;20613;-76
2022/05/04 01:37:26;;;;;;;9.13;8.20;;;;;;;-143.37;100.00;62585.38;5004165;28;20453;-75
2022/05/04 01:40:03;;;;;;;10.07;9.07;;;;;;;-143.37;100.00;62585.38;5021576;28;20550;-76
2022/05/04 01:42:42;;;;;;;9.53;8.60;;;;;;;-143.37;100.00;62585.38;5008565;28;20435;-75
2022/05/04 01:45:18;;;;;;;10.27;9.37;;;;;;;-143.37;100.00;62585.38;5022241;28;20828;-75
2022/05/04 01:47:53;;;;;;;9.30;8.40;;;;;;;-143.37;100.00;62585.38;5003606;28;20577;-75
2022/05/04 01:50:29;;;;;;;9.40;8.23;;;;;;;-143.37;100.00;62585.38;5020229;28;20468;-75
2022/05/04 01:53:06;;;;;;;9.83;8.87;;;;;;;-143.37;100.00;62585.38;4996178;28;20447;-75
2022/05/04 01:55:42;;;;;;;9.50;8.50;;;;;;;-143.37;100.00;62585.38;5007004;28;20545;-75
2022/05/04 01:58:18;;;;;;;9.67;8.77;;;;;;;-143.37;100.00;62585.38;5012103;28;20501;-75
2022/05/04 02:00:53;;;;;;;12.50;11.30;;;;;;;-143.37;100.00;62585.38;5008295;28;20538;-75
2022/05/04 02:03:29;;;;;;;12.37;10.03;;;;;;;-143.37;100.00;62585.38;5010292;28;21021;-75
2022/05/04 02:06:05;;;;;;;10.70;9.73;;;;;;;-143.37;100.00;62585.38;5024399;28;20505;-75
2022/05/04 02:08:42;;;;;;;10.40;9.30;;;;;;;-143.37;100.00;62585.38;5024266;28;20925;-75
2022/05/04 02:11:19;;;;;;;10.40;9.40;;;;;;;-143.37;100.00;62585.38;5028612;28;20448;-75
2022/05/04 02:13:55;;;;;;;10.93;9.30;;;;;;;-143.37;100.00;62585.38;5010174;28;21060;-75
2022/05/04 02:16:31;;;;;;;10.80;9.73;;;;;;;-143.37;100.00;62585.38;5017109;28;20779;-75
2022/05/04 02:19:07;;;;;;;11.03;9.93;;;;;;;-143.37;100.00;62585.38;5022711;28;20452;-75
2022/05/04 02:21:42;;;;;;;10.07;9.07;;;;;;;-143.37;100.00;62585.38;5025647;28;20439;-76
2022/05/04 02:24:19;;;;;;;10.47;9.40;;;;;;;-143.37;100.00;62585.38;5027989;28;20990;-77
2022/05/04 02:26:54;;;;;;;11.90;10.23;;;;;;;-143.37;100.00;62585.38;5013282;28;20455;-77
2022/05/04 02:29:31;;;;;;;10.90;9.80;;;;;;;-143.37;100.00;62585.38;5007766;28;20866;-76
2022/05/04 02:32:07;;;;;;;10.17;9.17;;;;;;;-143.37;100.00;62585.38;5027443;28;20437;-77
2022/05/04 02:40:26;;;;;;;10.13;9.13;;;;;;;-143.37;100.00;62585.38;5020538;28;20447;-76
2022/05/04 02:43:03;;;;;;;9.90;8.97;;;;;;;-143.37;100.00;62585.38;5005467;28;20536;-76
2022/05/04 02:45:39;;;;;;;9.30;8.40;;;;;;;-143.37;100.00;62585.38;5009682;28;20432;-76
2022/05/04 02:48:22;;;;;;;10.43;8.60;;;;;;;-143.37;100.00;62585.38;4994883;28;20829;-76
2022/05/04 02:51:00;;;;;;;9.20;8.37;;;;;;;-143.37;100.00;62585.38;5032080;28;20455;-77
2022/05/04 02:53:35;;;;;;;11.30;10.20;;;;;;;-143.37;100.00;62585.38;5009841;28;20465;-77
2022/05/04 02:56:15;;;;;;;10.27;9.27;;;;;;;-143.37;100.00;62585.38;5005553;28;20467;-76
2022/05/04 02:58:53;;;;;;;10.80;9.70;;;;;;;-143.37;100.00;62585.38;5004905;28;20452;-77
2022/05/04 03:04:21;;;;;;;10.60;9.60;;;;;;;-143.37;100.00;62585.38;4999430;28;20565;-77
2022/05/04 03:06:57;;;;;;;10.20;9.20;;;;;;;-143.37;100.00;62585.38;5024597;28;20854;-76
2022/05/04 03:09:32;;;;;;;10.80;9.80;;;;;;;-143.37;100.00;62585.38;5023649;28;20459;-76
2022/05/04 03:12:10;;;;;;;13.57;10.03;;;;;;;-143.37;100.00;62585.38;5021816;28;20448;-76
2022/05/04 03:14:46;;;;;;;10.70;9.60;;;;;;;-143.37;100.00;62585.38;5020195;28;20958;-77
2022/05/04 03:17:23;;;;;;;10.50;9.40;;;;;;;-143.37;100.00;62585.38;5020044;28;20456;-76
2022/05/04 03:20:00;;;;;;;10.03;9.00;;;;;;;-143.37;100.00;62585.38;5024055;28;20444;-76
2022/05/04 03:22:36;;;;;;;10.57;9.47;;;;;;;-143.37;100.00;62585.38;5012691;28;20456;-76
2022/05/04 03:25:12;;;;;;;11.03;9.93;;;;;;;-143.37;100.00;62585.38;5002652;28;20428;-76
2022/05/04 03:27:49;;;;;;;11.17;10.17;;;;;;;-143.37;100.00;62585.38;5006092;28;20550;-76
2022/05/04 03:30:24;;;;;;;10.70;9.70;;;;;;;-143.37;100.00;62585.38;5005100;28;20452;-76
2022/05/04 03:33:00;;;;;;;10.80;9.70;;;;;;;-143.37;100.00;62585.38;5007664;28;20443;-76
2022/05/04 03:35:35;;;;;;;11.47;10.27;;;;;;;-143.37;100.00;62585.38;5021686;28;20499;-76
2022/05/04 03:38:11;;;;;;;10.77;9.67;;;;;;;-143.37;100.00;62585.38;5018866;28;20449;-76
2022/05/04 03:40:46;;;;;;;11.00;9.90;;;;;;;-143.37;100.00;62585.38;5024828;28;20443;-76
2022/05/04 03:43:23;;;;;;;10.00;9.00;;;;;;;-143.37;100.00;62585.38;5023290;28;20452;-77
2022/05/04 03:46:12;;;;;;;11.70;10.47;;;;;;;-143.37;100.00;62585.38;5022234;28;20443;-77
2022/05/04 03:48:48;;;;;;;11.13;10.00;;;;;;;-143.37;100.00;62585.38;5017005;28;20492;-76
2022/05/04 03:51:24;;;;;;;10.23;9.10;;;;;;;-143.37;100.00;62585.38;5001622;28;20467;-76
2022/05/04 03:54:00;;;;;;;12.00;10.47;;;;;;;-143.37;100.00;62585.38;5021874;28;20542;-77
2022/05/04 03:56:36;;;;;;;10.73;9.63;;;;;;;-143.37;100.00;62585.38;4988926;28;20484;-77
2022/05/04 03:59:13;;;;;;;10.30;9.30;;;;;;;-143.37;100.00;62585.38;5022118;28;20538;-77
2022/05/04 04:01:49;;;;;;;10.70;8.60;;;;;;;-143.37;100.00;62585.38;5005327;28;20456;-77
2022/05/04 04:04:24;;;;;;;9.07;8.20;;;;;;;-143.37;100.00;62585.38;5008459;28;20438;-76
2022/05/04 04:07:00;;;;;;;8.90;8.00;;;;;;;-143.37;100.00;62585.38;5034403;28;20462;-76
2022/05/04 04:09:35;;;;;;;8.27;7.47;;;;;;;-143.37;100.00;62585.38;5045767;28;20494;-76
2022/05/04 04:12:12;;;;;;;8.23;7.40;;;;;;;-143.37;100.00;62585.38;5020416;28;20526;-76
2022/05/04 04:14:49;;;;;;;9.50;8.40;;;;;;;-143.37;100.00;62585.38;5023830;28;20531;-76
2022/05/04 04:17:24;;;;;;;8.27;7.47;;;;;;;-143.37;100.00;62585.38;5040374;28;20446;-77
2022/05/04 04:22:53;;;;;;;8.03;7.17;;;;;;;-143.37;100.00;62585.38;5044814;28;20450;-76
2022/05/04 04:25:28;;;;;;;8.07;7.27;;;;;;;-143.37;100.00;62585.38;5040907;28;20478;-77
2022/05/04 04:28:05;;;;;;;9.87;8.87;;;;;;;-143.37;100.00;62585.38;5043632;28;20952;-76
2022/05/04 04:30:42;;;;;;;8.27;7.40;;;;;;;-143.37;100.00;62585.38;5027497;28;20513;-76
2022/05/04 04:33:18;;;;;;;8.83;8.03;;;;;;;-143.37;100.00;62585.38;5026904;28;20475;-76
2022/05/04 04:35:54;;;;;;;9.83;8.83;;;;;;;-143.37;100.00;62585.38;5007203;28;20473;-77
2022/05/04 04:38:30;;;;;;;8.33;7.30;;;;;;;-143.37;100.00;62585.38;5024906;28;20467;-77
2022/05/04 04:41:05;;;;;;;8.77;7.90;;;;;;;-143.37;100.00;62585.38;5025200;28;20466;-77
2022/05/04 04:43:41;;;;;;;7.03;6.33;;;;;;;-143.37;100.00;62585.38;5025110;28;20448;-77
2022/05/04 04:46:18;;;;;;;8.63;7.73;;;;;;;-143.37;100.00;62585.38;5005695;28;20455;-77
2022/05/04 04:48:54;;;;;;;8.43;7.63;;;;;;;-143.37;100.00;62585.38;5043878;28;20446;-77
2022/05/04 04:51:29;;;;;;;7.13;6.43;;;;;;;-143.37;100.00;62585.38;5041945;28;20529;-77
2022/05/04 04:54:05;;;;;;;8.23;7.10;;;;;;;-143.37;100.00;62585.38;5045255;28;20895;-77
2022/05/04 04:56:40;;;;;;;7.47;6.53;;;;;;;-143.37;100.00;62585.38;5027595;28;20455;-77
2022/05/04 04:59:16;;;;;;;6.80;6.10;;;;;;;-143.37;100.00;62585.38;5043091;28;20458;-76
2022/05/04 05:01:53;;;;;;;7.00;6.00;;;;;;;-143.37;100.00;62585.38;5042909;28;20525;-77
2022/05/04 05:04:28;;;;;;;8.50;7.30;;;;;;;-143.37;100.00;62585.38;5042165;28;20447;-76
2022/05/04 05:07:04;;;;;;;7.80;6.40;;;;;;;-143.37;100.00;62585.38;5030555;28;20466;-77
2022/05/04 05:09:39;;;;;;;9.40;8.27;;;;;;;-143.37;100.00;62585.38;5008217;28;20466;-77
2022/05/04 05:12:25;;;;;;;10.97;8.50;;;;;;;-143.37;100.00;62585.38;5050119;28;20445;-77
2022/05/04 05:17:56;;;;;;;10.10;9.10;;;;;;;-143.37;100.00;62585.38;5047883;28;20537;-77
2022/05/04 05:20:31;;;;;;;9.17;8.27;;;;;;;-143.37;100.00;62585.38;5041487;28;20436;-77
2022/05/04 05:23:08;;;;;;;9.40;8.50;;;;;;;-143.37;100.00;62585.38;5026424;28;20447;-77
2022/05/04 05:25:43;;;;;;;11.67;10.60;;;;;;;-143.37;100.00;62585.38;5029036;28;20462;-77
2022/05/04 05:28:19;;;;;;;8.93;8.00;;;;;;;-143.37;100.00;62585.38;5041717;28;20451;-77
2022/05/04 05:30:55;;;;;;;9.50;8.50;;;;;;;-143.37;100.00;62585.38;5013201;28;20472;-77
2022/05/04 05:33:32;;;;;;;9.57;8.57;;;;;;;-143.37;100.00;62585.38;5028817;28;20451;-77
2022/05/04 05:36:08;;;;;;;10.20;9.20;;;;;;;-143.37;100.00;62585.38;5028272;28;20468;-77
2022/05/04 05:38:43;;;;;;;9.20;8.40;;;;;;;-143.37;100.00;62585.38;5047852;28;20920;-77
2022/05/04 05:41:19;;;;;;;9.83;8.67;;;;;;;-143.37;100.00;62585.38;5024845;28;20918;-77
2022/05/04 05:43:55;;;;;;;10.80;9.57;;;;;;;-143.37;100.00;62585.38;5025911;28;20456;-76
2022/05/04 05:46:31;;;;;;;11.10;9.90;;;;;;;-143.37;100.00;62585.38;5028302;28;20864;-77
2022/05/04 05:49:08;;;;;;;10.80;9.70;;;;;;;-143.37;100.00;62585.38;5009438;28;20459;-77
2022/05/04 05:51:43;;;;;;;10.23;9.20;;;;;;;-143.37;100.00;62585.38;5049964;28;20447;-77
2022/05/04 05:54:35;;;;;;;9.13;8.23;;;;;;;-143.37;100.00;62585.38;5026995;28;20439;-76
2022/05/04 05:57:10;;;;;;;9.70;8.03;;;;;;;-143.37;100.00;62585.38;5045123;28;20443;-77
2022/05/04 05:59:46;;;;;;;9.33;8.37;;;;;;;-143.37;100.00;62585.38;5030126;28;20453;-77
2022/05/04 06:02:27;;;;;;;9.80;8.10;;;;;;;-143.37;100.00;62585.38;5043117;28;20437;-77
2022/05/04 06:05:05;;;;;;;9.03;7.87;;;;;;;-143.37;100.00;62585.38;5027964;28;20798;-77
2022/05/04 06:07:41;;;;;;;10.70;7.97;;;;;;;-143.37;100.00;62585.38;5045822;28;20474;-77
2022/05/04 06:10:16;;;;;;;9.87;8.97;;;;;;;-143.37;100.00;62585.38;5018701;28;20443;-77
2022/05/04 06:12:54;;;;;;;9.07;8.17;;;;;;;-143.37;100.00;62585.38;5041187;28;20934;-77
2022/05/04 06:15:29;;;;;;;12.10;8.60;;;;;;;-143.37;100.00;62585.38;5041535;28;21032;-77
2022/05/04 06:18:05;;;;;;;10.27;9.20;;;;;;;-143.37;100.00;62585.38;5023736;28;20462;-77
2022/05/04 06:20:42;;;;;;;10.10;7.60;;;;;;;-143.37;100.00;62585.38;5044575;28;20925;-77
2022/05/04 06:23:17;;;;;;;9.53;8.53;;;;;;;-143.37;100.00;62585.38;5006219;28;20835;-77
2022/05/04 06:25:53;;;;;;;9.77;8.77;;;;;;;-143.37;100.00;62585.38;5022148;28;20434;-77
2022/05/04 06:28:28;;;;;;;10.30;9.30;;;;;;;-143.37;100.00;62585.38;5035525;28;20451;-77
2022/05/04 06:34:10;;;;;;;10.63;9.03;;;;;;;-143.37;100.00;62585.38;5039518;28;20443;-77
2022/05/04 06:36:48;;;;;;;11.13;9.97;;;;;;;-143.37;100.00;62585.38;5040706;28;20842;-77
2022/05/04 06:39:24;;;;;;;11.67;10.47;;;;;;;-143.37;100.00;62585.38;5044878;28;20832;-77
2022/05/04 06:42:00;;;;;;;11.10;9.90;;;;;;;-143.37;100.00;62585.38;5021844;28;20843;-77
2022/05/04 06:44:37;;;;;;;10.63;9.60;;;;;;;-143.37;100.00;62585.38;5027855;28;20450;-77
2022/05/04 06:47:13;;;;;;;11.23;9.47;;;;;;;-143.37;100.00;62585.38;5026288;28;20461;-77
2022/05/04 06:49:48;;;;;;;11.03;9.93;;;;;;;-143.37;100.00;62585.38;5027849;28;20929;-77
2022/05/04 06:52:37;;;;;;;10.70;9.67;;;;;;;-143.37;100.00;62585.38;5044658;28;20460;-77
2022/05/04 06:55:13;;;;;;;15.23;10.37;;;;;;;-143.37;100.00;62585.38;5024735;28;20470;-77
2022/05/04 06:57:49;;;;;;;11.93;9.90;;;;;;;-143.37;100.00;62585.38;5027533;28;20996;-77
2022/05/04 07:00:25;;;;;;;12.20;9.90;;;;;;;-143.37;100.00;62585.38;5049374;28;20444;-77
2022/05/04 07:03:00;;;;;;;11.63;10.23;;;;;;;-143.37;100.00;62585.38;5045136;28;20458;-78
2022/05/04 07:05:36;;;;;;;10.57;9.47;;;;;;;-143.37;100.00;62585.38;5027562;28;20455;-78
2022/05/04 07:08:13;;;;;;;12.50;10.87;;;;;;;-143.37;100.00;62585.38;5028106;28;20455;-78
2022/05/04 07:10:48;;;;;;;11.77;9.80;;;;;;;-143.37;100.00;62585.38;5043984;28;20431;-77
2022/05/04 07:13:25;;;;;;;11.47;10.27;;;;;;;-143.37;100.00;62585.38;5038325;28;20454;-78
2022/05/04 07:18:44;;;;;;;10.50;9.40;;;;;;;-143.37;100.00;62585.38;5063419;28;20879;-78
2022/05/04 07:21:19;;;;;;;10.70;9.60;;;;;;;-143.37;100.00;62585.38;5048765;28;20541;-77
2022/05/04 07:23:56;;;;;;;12.33;10.90;;;;;;;-143.37;100.00;62585.38;5063850;28;20795;-78
2022/05/04 07:26:32;;;;;;;10.47;8.93;;;;;;;-143.37;100.00;62585.38;5065422;28;20521;-77
2022/05/04 07:29:08;;;;;;;10.60;9.50;;;;;;;-143.37;100.00;62585.38;5047631;28;20481;-78
2022/05/04 07:31:43;;;;;;;9.73;8.63;;;;;;;-143.37;100.00;62585.38;5061736;28;20449;-78
2022/05/04 07:34:19;;;;;;;10.20;9.20;;;;;;;-143.37;100.00;62585.38;5061682;28;20454;-78
2022/05/04 07:36:56;;;;;;;10.47;9.47;;;;;;;-143.37;100.00;62585.38;5048112;28;20501;-78
2022/05/04 07:42:27;;;;;;;11.23;9.00;;;;;;;-143.37;100.00;62585.38;5048997;28;20784;-78
2022/05/04 07:45:04;;;;;;;15.87;8.80;;;;;;;-143.37;100.00;62585.38;5052822;28;20449;-78
2022/05/04 07:47:40;;;;;;;9.97;8.30;;;;;;;-143.37;100.00;62585.38;5065981;28;20430;-78
2022/05/04 07:50:17;;;;;;;11.03;8.83;;;;;;;-143.37;100.00;62585.38;5067295;28;20442;-78
2022/05/04 07:52:53;;;;;;;11.33;9.07;;;;;;;-143.37;100.00;62585.38;5068197;28;20817;-78
2022/05/04 07:55:31;;;;;;;9.50;8.40;;;;;;;-143.37;100.00;62585.38;5062486;28;20466;-77
2022/05/04 07:58:06;;;;;;;10.73;9.63;;;;;;;-143.37;100.00;62585.38;5043005;28;20499;-78
2022/05/04 08:06:38;;;;;;;9.20;8.30;;;;;;;-143.37;100.00;62585.38;5062888;28;20630;-77
2022/05/04 08:09:14;;;;;;;10.40;8.90;;;;;;;-143.37;100.00;62585.38;5036728;28;20443;-78
2022/05/04 08:11:50;;;;;;;10.63;8.23;;;;;;;-143.37;100.00;62585.38;5063498;28;20971;-78
2022/05/04 08:14:26;;;;;;;9.83;8.87;;;;;;;-143.37;100.00;62585.38;5065200;28;21073;-78
2022/05/04 08:17:02;;;;;;;9.93;8.20;;;;;;;-143.37;100.00;62585.38;5060977;28;20470;-79
2022/05/04 08:19:38;;;;;;;13.63;8.50;;;;;;;-143.37;100.00;62585.38;5046166;28;20466;-79
2022/05/04 08:22:14;;;;;;;9.13;8.20;;;;;;;-143.37;100.00;62585.38;5055994;28;20541;-79
2022/05/04 08:24:51;;;;;;;9.00;8.10;;;;;;;-143.37;100.00;62585.38;5046386;28;20453;-79
2022/05/04 08:27:31;;;;;;;8.90;7.80;;;;;;;-143.37;100.00;62585.38;5045577;28;20442;-79
2022/05/04 08:30:09;;;;;;;8.60;7.60;;;;;;;-143.37;100.00;62585.38;5046544;28;20881;-79
2022/05/04 08:32:45;;;;;;;9.10;8.20;;;;;;;-143.37;100.00;62585.38;5064873;28;20450;-79
2022/05/04 08:35:22;;;;;;;9.43;8.53;;;;;;;-143.37;100.00;62585.38;5062676;28;20477;-79
2022/05/04 08:38:00;;;;;;;10.43;8.03;;;;;;;-143.37;100.00;62585.38;5044536;28;20447;-79
2022/05/04 08:40:36;;;;;;;9.80;7.80;;;;;;;-143.37;100.00;62585.38;5049321;28;20434;-79
2022/05/04 08:43:13;;;;;;;9.17;7.30;;;;;;;-143.37;100.00;62585.38;5042414;28;20828;-79
2022/05/04 08:45:51;;;;;;;12.23;9.23;;;;;;;-143.37;100.00;62585.38;5049690;28;20947;-80
2022/05/04 08:48:27;;;;;;;12.70;8.70;;;;;;;-143.37;100.00;62585.38;5037388;28;21002;-80
2022/05/04 08:51:03;;;;;;;7.83;7.13;;;;;;;-143.37;100.00;62585.38;5045970;28;20429;-80
2022/05/04 08:53:42;;;;;;;8.67;7.53;;;;;;;-143.37;100.00;62585.38;5042676;28;20438;-80
2022/05/04 08:56:18;;;;;;;8.40;7.60;;;;;;;-143.37;100.00;62585.38;5062692;28;20466;-80
2022/05/04 08:58:55;;;;;;;9.13;7.87;;;;;;;-143.37;100.00;62585.38;5066300;28;20445;-80
2022/05/04 09:01:32;;;;;;;9.47;7.90;;;;;;;-143.37;100.00;62585.38;5045708;28;20476;-80
2022/05/04 09:04:08;;;;;;;12.93;9.60;;;;;;;-143.37;100.00;62585.38;5067295;28;20458;-79
2022/05/04 09:06:44;;;;;;;11.97;9.47;;;;;;;-143.37;100.00;62585.38;5052167;28;21529;-79
2022/05/04 09:09:20;;;;;;;9.33;8.30;;;;;;;-143.37;100.00;62585.38;5053626;28;20446;-78
2022/05/04 09:11:55;;;;;;;9.20;8.20;;;;;;;-143.37;100.00;62585.38;5031062;28;20426;-78
2022/05/04 09:14:35;;;;;;;12.30;9.57;;;;;;;-143.37;100.00;62585.38;5049724;28;20437;-78
2022/05/04 09:17:10;;;;;;;12.57;8.97;;;;;;;-143.37;100.00;62585.38;5045583;28;20463;-78
2022/05/04 09:20:45;;;;;;;9.93;8.60;;;;;;;-143.37;100.00;62585.38;5057113;28;20473;-79
2022/05/04 09:22:52;;;;;;;10.57;8.43;;;;;;;-143.37;100.00;62585.38;5044777;28;20453;-78
2022/05/04 09:25:28;;;;;;;8.77;7.87;;;;;;;-143.37;100.00;62585.38;5062945;28;20445;-78
2022/05/04 09:28:03;;;;;;;9.13;8.23;;;;;;;-143.37;100.00;62585.38;5045475;28;20472;-79
2022/05/04 09:30:45;;;;;;;9.20;8.30;;;;;;;-143.37;100.00;62585.38;5029159;28;20449;-78
2022/05/04 09:33:26;;;;;;;8.20;7.40;;;;;;;-143.37;100.00;62585.38;5063455;28;20540;-79
2022/05/04 09:36:03;;;;;;;8.27;7.43;;;;;;;-143.37;100.00;62585.38;5039397;28;20494;-79
2022/05/04 09:47:26;;;;;;;9.37;8.37;;;;;;;-143.37;100.00;62585.38;5061510;28;20480;-80
2022/05/04 09:50:04;;;;;;;10.20;8.53;;;;;;;-143.37;100.00;62585.38;5064709;28;20438;-79
2022/05/04 09:52:42;;;;;;;9.30;8.23;;;;;;;-143.37;100.00;62585.38;5046922;28;20449;-80
2022/05/04 09:55:20;;;;;;;9.67;8.77;;;;;;;-143.37;100.00;62585.38;5043711;28;20872;-79
2022/05/04 09:57:57;;;;;;;9.00;8.07;;;;;;;-143.37;100.00;62585.38;5031186;28;20449;-80
2022/05/04 10:00:32;;;;;;;10.40;9.30;;;;;;;-143.37;100.00;62585.38;5047608;28;20790;-79
2022/05/04 10:03:09;;;;;;;10.70;8.37;;;;;;;-143.37;100.00;62585.38;5041175;28;20447;-79
2022/05/04 10:05:45;;;;;;;9.90;8.40;;;;;;;-143.37;100.00;62585.38;5044344;28;20634;-79
2022/05/04 10:08:23;;;;;;;8.77;7.33;;;;;;;-143.37;100.00;62585.38;5041480;28;20449;-79
2022/05/04 10:11:16;;;;;;;7.47;6.77;;;;;;;-143.37;100.00;62585.38;5060956;28;20453;-79
2022/05/04 10:13:53;;;;;;;7.20;6.50;;;;;;;-143.37;100.00;62585.38;5051554;28;20457;-79
2022/05/04 10:16:29;;;;;;;7.60;6.60;;;;;;;-143.37;100.00;62585.38;5048712;28;20473;-79
2022/05/04 10:19:12;;;;;;;7.50;6.80;;;;;;;-143.37;100.00;62585.38;5052816;28;20535;-79
2022/05/04 10:21:50;;;;;;;10.17;7.00;;;;;;;-143.37;100.00;62585.38;5050181;28;20442;-79
2022/05/04 10:24:27;;;;;;;8.50;7.70;;;;;;;-143.37;100.00;62585.38;5044334;28;20458;-79
2022/05/04 10:27:16;;;;;;;8.60;7.50;;;;;;;-143.37;100.00;62585.38;5033741;28;20433;-79
2022/05/04 10:32:55;;;;;;;11.07;9.60;;;;;;;-143.37;100.00;62585.38;5063810;28;20442;-78
2022/05/04 10:35:43;;;;;;;9.73;8.73;;;;;;;-143.37;100.00;62585.38;5044113;28;20466;-79
2022/05/04 10:38:30;;;;;;;11.40;10.30;;;;;;;-143.37;100.00;62585.38;5065030;28;20446;-79
2022/05/04 10:41:06;;;;;;;12.17;10.90;;;;;;;-143.37;100.00;62585.38;5061839;28;20442;-79
2022/05/04 10:43:45;;;;;;;11.70;10.50;;;;;;;-143.37;100.00;62585.38;5046768;28;20458;-78
2022/05/04 10:46:24;;;;;;;12.07;10.57;;;;;;;-143.37;100.00;62585.38;5037008;28;20437;-78
2022/05/04 10:49:03;;;;;;;11.67;10.53;;;;;;;-143.37;100.00;62585.38;5067415;28;20923;-79
2022/05/04 10:51:42;;;;;;;12.10;10.80;;;;;;;-143.37;100.00;62585.38;5068535;28;20438;-79
2022/05/04 10:54:19;;;;;;;12.00;10.77;;;;;;;-143.37;100.00;62585.38;5049646;28;20446;-79
2022/05/04 10:56:56;;;;;;;12.03;10.67;;;;;;;-143.37;100.00;62585.38;5038476;28;20995;-79
2022/05/04 10:59:35;;;;;;;18.20;12.80;;;;;;;-143.37;100.00;62585.38;5045366;28;20898;-79
2022/05/04 11:02:13;;;;;;;16.47;12.30;;;;;;;-143.37;100.00;62585.38;5047299;28;20442;-79
2022/05/04 11:04:53;;;;;;;12.60;11.40;;;;;;;-143.37;100.00;62585.38;5048253;28;20455;-79
2022/05/04 11:07:37;;;;;;;11.97;10.77;;;;;;;-143.37;100.00;62585.38;5038352;28;20434;-79
2022/05/04 11:10:15;;;;;;;12.53;11.23;;;;;;;-143.37;100.00;62585.38;5063104;28;20442;-79
2022/05/04 11:12:50;;;;;;;11.47;10.20;;;;;;;-143.37;100.00;62585.38;5030962;28;20810;-79
2022/05/04 11:15:28;;;;;;;10.53;8.63;;;;;;;-143.37;100.00;62585.38;5044436;28;20520;-79
2022/05/04 11:18:08;;;;;;;7.63;6.93;;;;;;;-143.37;100.00;62585.38;5050225;28;20823;-79
2022/05/04 11:20:46;;;;;;;7.87;7.07;;;;;;;-143.37;100.00;62585.38;5046470;28;20816;-78
2022/05/04 11:23:26;;;;;;;9.50;7.90;;;;;;;-143.37;100.00;62585.38;5069530;28;20791;-78
2022/05/04 11:26:02;;;;;;;8.17;7.37;;;;;;;-143.37;100.00;62585.38;5063629;28;20433;-79
2022/05/04 11:28:37;;;;;;;8.83;8.03;;;;;;;-143.37;100.00;62585.38;5048033;28;20458;-78
2022/05/04 11:31:13;;;;;;;8.70;6.80;;;;;;;-143.37;100.00;62585.38;5043966;28;20479;-78
2022/05/04 11:33:50;;;;;;;6.67;6.07;;;;;;;-143.37;100.00;62585.38;5052215;28;20853;-78
2022/05/04 11:36:25;;;;;;;6.97;6.27;;;;;;;-143.37;100.00;62585.38;5051071;28;20458;-78
2022/05/04 11:39:04;;;;;;;7.70;7.00;;;;;;;-143.37;100.00;62585.38;5041359;28;20485;-78
2022/05/04 11:41:39;;;;;;;8.00;7.30;;;;;;;-143.37;100.00;62585.38;5065536;28;20430;-78
2022/05/04 11:44:18;;;;;;;10.80;6.93;;;;;;;-143.37;100.00;62585.38;5037794;28;20836;-78
2022/05/04 11:46:54;;;;;;;9.00;8.10;;;;;;;-143.37;100.00;62585.38;5046254;28;20438;-78
2022/05/04 11:49:31;;;;;;;8.47;7.67;;;;;;;-143.37;100.00;62585.38;5047897;28;20939;-78
2022/05/04 11:52:08;;;;;;;7.60;6.90;;;;;;;-143.37;100.00;62585.38;5047315;28;20807;-78
2022/05/04 11:54:45;;;;;;;8.30;7.57;;;;;;;-143.37;100.00;62585.38;5065945;28;20446;-79
2022/05/04 11:57:23;;;;;;;7.93;7.13;;;;;;;-143.37;100.00;62585.38;5023534;28;21524;-78
2022/05/04 12:00:00;;;;;;;9.53;8.53;;;;;;;-143.37;100.00;62585.38;5038801;28;20434;-78
2022/05/04 12:02:35;;;;;;;7.93;6.90;;;;;;;-143.37;100.00;62585.38;5065269;28;20772;-79
2022/05/04 12:05:11;;;;;;;8.80;7.57;;;;;;;-143.37;100.00;62585.38;5047261;28;20619;-79
2022/05/04 12:07:46;;;;;;;8.00;7.23;;;;;;;-143.37;100.00;62585.38;5047776;28;20446;-78
2022/05/04 12:10:24;;;;;;;9.13;8.23;;;;;;;-143.37;100.00;62585.38;5060379;28;20434;-79
2022/05/04 12:13:00;;;;;;;7.43;6.73;;;;;;;-143.37;100.00;62585.38;5045768;28;20540;-79
2022/05/04 12:15:37;;;;;;;7.77;7.07;;;;;;;-143.37;100.00;62585.38;5050875;28;20446;-79
2022/05/04 12:18:14;;;;;;;7.17;6.47;;;;;;;-143.37;100.00;62585.38;5058411;28;20910;-79
2022/05/04 12:20:50;;;;;;;7.00;6.30;;;;;;;-143.37;100.00;62585.38;5045790;28;20446;-79
2022/05/04 12:23:25;;;;;;;7.13;6.37;;;;;;;-143.37;100.00;62585.38;5065417;28;20454;-79
2022/05/04 12:26:03;;;;;;;9.13;7.10;;;;;;;-143.37;100.00;62585.38;5060988;28;20437;-79
2022/05/04 12:28:39;;;;;;;6.93;6.23;;;;;;;-143.37;100.00;62585.38;5043981;28;20449;-79
2022/05/04 12:34:13;;;;;;;6.67;5.97;;;;;;;-143.37;100.00;62585.38;5051729;28;20801;-81